Time;durP1;ratioP1;P1;durP2;ratioP2;P2;SDS_P1;SDS_P2;PMS_P1;PMS_P2;Temp;Humidity;BMP_temperature;BMP_pressure;BME280_temperature;BME280_humidity;BME280_pressure;Samples;Min_cycle;Max_cycle;Signal;HPM_P1;HPM_P2
2022/05/13 00:00:27;;;;;;;3.90;3.53;;;18.80;99.90;;;;;;5070748;28;20452;-45
2022/05/13 00:02:54;;;;;;;4.77;4.27;;;18.90;99.90;;;;;;5070452;28;20484;-44
2022/05/13 00:05:22;;;;;;;3.43;3.13;;;18.80;99.90;;;;;;5071815;28;20531;-45
2022/05/13 00:07:49;;;;;;;3.40;3.10;;;18.70;99.90;;;;;;5074116;28;20541;-45
2022/05/13 00:10:16;;;;;;;4.37;3.97;;;18.70;99.90;;;;;;5073717;28;20479;-47
2022/05/13 00:12:43;;;;;;;3.60;3.30;;;18.60;99.90;;;;;;5074090;28;20505;-49
2022/05/13 00:15:14;;;;;;;3.83;3.40;;;18.50;99.90;;;;;;5073872;28;20970;-45
2022/05/13 00:17:41;;;;;;;5.40;5.00;;;18.50;99.90;;;;;;5073911;28;20784;-49
2022/05/13 00:20:11;;;;;;;4.93;3.60;;;18.60;99.90;;;;;;5074118;28;20444;-45
2022/05/13 00:22:43;;;;;;;4.00;3.60;;;18.70;99.90;;;;;;5074067;28;20440;-46
2022/05/13 00:25:11;;;;;;;3.37;3.10;;;18.80;99.90;;;;;;5073664;28;20522;-45
2022/05/13 00:27:38;;;;;;;4.30;3.87;;;18.60;99.90;;;;;;5073534;28;20567;-45
2022/05/13 00:30:08;;;;;;;8.83;5.13;;;18.20;99.90;;;;;;5073395;28;20444;-45
2022/05/13 00:32:36;;;;;;;3.50;3.20;;;18.10;99.90;;;;;;5073523;28;20448;-45
2022/05/13 00:35:04;;;;;;;4.50;4.10;;;18.00;99.90;;;;;;5073803;28;20467;-45
2022/05/13 00:37:31;;;;;;;4.43;4.03;;;18.00;99.90;;;;;;5073381;28;20472;-45
2022/05/13 00:39:58;;;;;;;8.33;4.07;;;18.20;99.90;;;;;;5073431;28;20440;-45
2022/05/13 00:42:25;;;;;;;4.10;3.70;;;18.20;99.90;;;;;;5072767;28;20476;-47
2022/05/13 00:44:52;;;;;;;4.40;4.00;;;18.10;99.90;;;;;;5073311;28;20547;-45
2022/05/13 00:47:19;;;;;;;3.40;3.10;;;18.20;99.90;;;;;;5073109;28;20867;-49
2022/05/13 00:49:48;;;;;;;3.63;3.33;;;18.40;99.90;;;;;;5073000;28;20437;-45
2022/05/13 00:52:15;;;;;;;3.90;3.60;;;18.40;99.90;;;;;;5073147;28;20490;-44
2022/05/13 00:54:43;;;;;;;4.73;4.43;;;18.50;99.90;;;;;;5139222;22;20586;-44
2022/05/13 00:57:12;;;;;;;5.53;4.00;;;18.50;99.90;;;;;;5093482;28;20431;-45
2022/05/13 00:59:42;;;;;;;5.27;4.17;;;18.60;99.90;;;;;;5092885;28;20435;-43
2022/05/13 01:02:09;;;;;;;6.43;4.10;;;18.50;99.90;;;;;;5093515;28;20522;-43
2022/05/13 01:04:38;;;;;;;7.27;3.97;;;18.40;99.90;;;;;;5093120;28;20459;-44
2022/05/13 01:07:11;;;;;;;6.80;4.07;;;18.30;99.90;;;;;;5093378;28;20432;-43
2022/05/13 01:09:42;;;;;;;5.00;4.27;;;18.30;99.90;;;;;;5092853;28;20483;-43
2022/05/13 01:12:14;;;;;;;4.50;4.10;;;18.20;99.90;;;;;;5092996;28;20444;-47
2022/05/13 01:14:47;;;;;;;5.23;4.47;;;18.20;99.90;;;;;;5092867;28;20513;-43
2022/05/13 01:20:10;;;;;;;5.53;4.40;;;18.20;99.90;;;;;;5092781;28;20423;-46
2022/05/13 01:22:44;;;;;;;5.40;4.70;;;18.00;99.90;;;;;;5092862;28;20529;-45
2022/05/13 01:25:13;;;;;;;5.73;4.70;;;17.90;99.90;;;;;;5092764;28;20540;-44
2022/05/13 01:27:42;;;;;;;5.20;4.70;;;18.00;99.90;;;;;;5092639;28;20963;-43
2022/05/13 01:30:12;;;;;;;4.67;4.17;;;18.00;99.90;;;;;;5092594;28;20467;-46
2022/05/13 01:32:39;;;;;;;4.40;4.00;;;18.00;99.90;;;;;;5092890;28;20440;-43
2022/05/13 01:35:07;;;;;;;6.30;5.70;;;18.10;99.90;;;;;;5092589;28;20900;-44
2022/05/13 01:37:34;;;;;;;5.47;4.27;;;18.10;99.90;;;;;;5092300;28;20479;-44
2022/05/13 01:40:05;;;;;;;5.10;3.67;;;18.10;99.90;;;;;;5092415;28;20472;-43
2022/05/13 01:42:33;;;;;;;5.00;4.50;;;18.10;99.90;;;;;;5092295;28;20467;-43
2022/05/13 01:45:00;;;;;;;4.73;4.20;;;18.10;99.90;;;;;;5092324;28;20535;-43
2022/05/13 01:47:28;;;;;;;5.50;4.20;;;18.10;99.90;;;;;;5092553;28;20949;-44
2022/05/13 01:49:55;;;;;;;5.17;4.00;;;18.10;99.90;;;;;;5092215;28;20439;-43
2022/05/13 01:52:22;;;;;;;5.80;4.67;;;18.00;99.90;;;;;;5092539;28;20471;-43
2022/05/13 01:54:49;;;;;;;5.70;5.20;;;17.80;99.90;;;;;;5092267;28;20499;-44
2022/05/13 01:57:18;;;;;;;5.43;4.93;;;17.70;99.90;;;;;;5092139;28;20471;-43
2022/05/13 01:59:45;;;;;;;5.10;4.70;;;17.60;99.90;;;;;;5092156;28;20428;-43
2022/05/13 02:02:12;;;;;;;5.30;4.60;;;17.70;99.90;;;;;;5092230;28;21078;-44
2022/05/13 02:04:37;;;;;;;4.83;4.37;;;17.80;99.90;;;;;;5092055;28;20494;-43
2022/05/13 02:07:05;;;;;;;9.67;5.20;;;17.80;99.90;;;;;;5091964;28;20467;-43
2022/05/13 02:09:32;;;;;;;4.60;3.50;;;17.80;99.90;;;;;;5091776;28;20773;-46
2022/05/13 02:11:59;;;;;;;5.17;4.20;;;17.90;99.90;;;;;;5092068;28;20498;-43
2022/05/13 02:14:27;;;;;;;5.20;4.70;;;17.70;99.90;;;;;;5091946;28;20487;-44
2022/05/13 02:16:54;;;;;;;7.20;5.00;;;17.50;99.90;;;;;;5092024;28;20471;-46
2022/05/13 02:19:21;;;;;;;5.10;4.60;;;17.30;99.90;;;;;;5091828;28;20440;-44
2022/05/13 02:21:48;;;;;;;5.90;5.43;;;17.00;99.90;;;;;;5091851;28;20807;-48
2022/05/13 02:24:16;;;;;;;8.63;5.47;;;16.90;99.90;;;;;;5092055;28;20495;-43
2022/05/13 02:26:44;;;;;;;5.60;4.70;;;17.10;99.90;;;;;;5091647;28;20439;-43
2022/05/13 02:29:10;;;;;;;5.47;4.97;;;17.20;99.90;;;;;;5090932;28;20558;-43
2022/05/13 02:31:39;;;;;;;7.10;4.90;;;17.30;99.90;;;;;;5091667;28;20475;-44
2022/05/13 02:34:06;;;;;;;4.57;4.07;;;17.40;99.90;;;;;;5091909;28;20495;-44
2022/05/13 02:36:33;;;;;;;5.13;4.23;;;17.50;99.90;;;;;;5091684;28;20968;-44
2022/05/13 02:39:00;;;;;;;5.03;4.53;;;17.50;99.90;;;;;;5091191;28;20501;-43
2022/05/13 02:41:27;;;;;;;4.87;4.47;;;17.50;99.90;;;;;;5091145;28;20492;-43
2022/05/13 02:43:56;;;;;;;4.97;4.57;;;17.50;99.90;;;;;;5091717;28;20491;-45
2022/05/13 02:46:24;;;;;;;5.63;5.13;;;17.60;99.90;;;;;;5091347;28;20446;-44
2022/05/13 02:48:53;;;;;;;5.60;5.10;;;17.70;99.90;;;;;;5091331;28;20474;-43
2022/05/13 02:51:21;;;;;;;5.07;4.67;;;17.80;99.90;;;;;;5091461;28;20521;-45
2022/05/13 02:53:49;;;;;;;5.00;4.50;;;17.80;99.90;;;;;;5091285;28;20439;-43
2022/05/13 02:56:16;;;;;;;6.00;5.40;;;17.60;99.90;;;;;;5091520;28;20492;-44
2022/05/13 02:58:43;;;;;;;5.30;4.80;;;17.50;99.90;;;;;;5091103;28;20522;-44
2022/05/13 03:01:13;;;;;;;5.87;5.37;;;17.50;99.90;;;;;;5091358;28;20439;-43
2022/05/13 03:03:41;;;;;;;7.40;4.80;;;17.40;99.90;;;;;;5091584;28;20435;-43
2022/05/13 03:06:10;;;;;;;7.60;5.03;;;17.50;99.90;;;;;;5091560;28;20497;-43
2022/05/13 03:08:37;;;;;;;7.67;6.50;;;17.30;99.90;;;;;;5091246;28;20569;-43
2022/05/13 03:11:05;;;;;;;6.20;5.03;;;17.10;99.90;;;;;;5091177;28;20991;-43
2022/05/13 03:13:32;;;;;;;7.93;5.30;;;17.30;99.90;;;;;;5091339;28;20526;-43
2022/05/13 03:16:03;;;;;;;5.20;4.70;;;17.40;99.90;;;;;;5091079;28;20531;-44
2022/05/13 03:18:30;;;;;;;5.40;4.60;;;17.50;99.90;;;;;;5091100;28;20546;-44
2022/05/13 03:20:57;;;;;;;4.73;4.33;;;17.60;99.90;;;;;;5091332;28;20518;-44
2022/05/13 03:23:26;;;;;;;6.87;5.50;;;17.60;99.90;;;;;;5090972;28;20465;-44
2022/05/13 03:25:53;;;;;;;8.60;5.77;;;17.60;99.90;;;;;;5090983;28;20521;-44
2022/05/13 03:28:20;;;;;;;5.17;4.70;;;17.30;99.90;;;;;;5090847;28;20550;-43
2022/05/13 03:30:49;;;;;;;5.50;5.00;;;17.30;99.90;;;;;;5091231;28;20531;-44
2022/05/13 03:33:17;;;;;;;6.20;4.90;;;17.40;99.90;;;;;;5091166;28;20445;-46
2022/05/13 03:35:44;;;;;;;6.20;5.60;;;17.50;99.90;;;;;;5091169;28;20491;-44
2022/05/13 03:38:11;;;;;;;6.80;5.27;;;17.50;99.90;;;;;;5090941;28;20439;-45
2022/05/13 03:40:39;;;;;;;8.77;5.30;;;17.50;99.90;;;;;;5093984;28;20975;-43
2022/05/13 03:43:07;;;;;;;6.10;5.60;;;17.60;99.90;;;;;;5095171;28;20439;-43
2022/05/13 03:45:36;;;;;;;7.20;4.63;;;17.60;99.90;;;;;;5094945;28;20916;-43
2022/05/13 03:48:04;;;;;;;6.20;4.80;;;17.60;99.90;;;;;;5094869;28;20450;-43
2022/05/13 03:50:31;;;;;;;6.27;5.67;;;17.50;99.90;;;;;;5094747;28;20439;-44
2022/05/13 03:52:58;;;;;;;5.40;4.93;;;17.60;99.90;;;;;;5094463;28;20551;-45
2022/05/13 03:55:25;;;;;;;5.30;4.80;;;17.50;99.90;;;;;;5094458;28;20471;-43
2022/05/13 03:57:53;;;;;;;5.90;5.30;;;17.60;99.90;;;;;;5094392;28;20945;-44
2022/05/13 04:00:20;;;;;;;6.53;4.93;;;17.50;99.90;;;;;;5094543;28;20497;-44
2022/05/13 04:02:47;;;;;;;5.67;5.10;;;17.50;99.90;;;;;;5094492;28;20467;-43
2022/05/13 04:10:44;;;;;;;8.73;5.40;;;16.90;99.90;;;;;;5094488;28;20944;-43
2022/05/13 04:16:06;;;;;;;5.60;5.10;;;16.70;99.90;;;;;;5094160;28;20814;-43
2022/05/13 04:18:36;;;;;;;5.77;5.20;;;16.60;99.90;;;;;;5093863;28;20438;-44
2022/05/13 04:21:06;;;;;;;7.03;6.47;;;16.80;99.90;;;;;;5094080;28;20439;-45
2022/05/13 04:23:34;;;;;;;5.57;5.07;;;16.90;99.90;;;;;;5094077;28;20471;-43
2022/05/13 04:26:01;;;;;;;7.33;6.00;;;17.00;99.90;;;;;;5094129;28;20489;-43
2022/05/13 04:28:29;;;;;;;6.70;6.00;;;17.00;99.90;;;;;;5093604;28;20794;-43
2022/05/13 04:30:58;;;;;;;6.47;5.87;;;17.00;99.90;;;;;;5094194;28;20508;-44
2022/05/13 04:33:25;;;;;;;5.20;4.70;;;17.00;99.90;;;;;;5094205;28;20538;-43
2022/05/13 04:35:52;;;;;;;6.80;6.20;;;17.10;99.90;;;;;;5093881;28;20541;-44
2022/05/13 04:38:19;;;;;;;7.70;6.33;;;17.20;99.90;;;;;;5093613;28;20475;-44
2022/05/13 04:40:46;;;;;;;7.67;5.70;;;17.30;99.90;;;;;;5093831;28;20522;-43
2022/05/13 04:43:12;;;;;;;7.23;6.13;;;17.30;99.90;;;;;;5093597;28;21007;-44
2022/05/13 04:45:42;;;;;;;6.10;5.50;;;17.30;99.90;;;;;;5093526;28;20451;-44
2022/05/13 04:48:17;;;;;;;5.87;5.27;;;17.20;99.90;;;;;;5093321;28;20448;-43
2022/05/13 04:50:48;;;;;;;5.50;5.00;;;17.20;99.90;;;;;;5092873;28;20474;-43
2022/05/13 04:53:20;;;;;;;6.90;6.00;;;17.10;99.90;;;;;;5093589;28;20471;-43
2022/05/13 04:55:47;;;;;;;7.53;5.57;;;17.20;99.90;;;;;;5093597;28;20478;-43
2022/05/13 04:58:14;;;;;;;5.20;4.80;;;17.20;99.90;;;;;;5093132;28;20493;-44
2022/05/13 05:00:43;;;;;;;7.73;6.00;;;17.40;99.90;;;;;;5094289;28;20439;-43
2022/05/13 05:03:10;;;;;;;5.73;5.23;;;17.40;99.90;;;;;;5094022;28;20970;-43
2022/05/13 05:05:37;;;;;;;6.37;5.73;;;17.50;99.90;;;;;;5093548;28;20495;-43
2022/05/13 05:08:04;;;;;;;6.00;5.50;;;17.50;99.90;;;;;;5093019;28;20471;-44
2022/05/13 05:10:31;;;;;;;6.00;5.50;;;17.50;99.90;;;;;;5093351;28;20475;-43
2022/05/13 05:12:58;;;;;;;5.47;4.97;;;17.60;99.90;;;;;;5093347;28;20439;-43
2022/05/13 05:15:26;;;;;;;5.97;5.47;;;17.60;99.90;;;;;;5093125;28;20547;-43
2022/05/13 05:17:55;;;;;;;6.30;5.40;;;17.70;99.90;;;;;;5093163;28;20508;-43
2022/05/13 05:20:22;;;;;;;6.63;5.63;;;17.70;99.90;;;;;;5093281;28;20530;-43
2022/05/13 05:22:50;;;;;;;7.50;5.90;;;17.70;99.90;;;;;;5093265;28;20471;-45
2022/05/13 05:25:19;;;;;;;7.30;5.27;;;17.60;99.90;;;;;;5092842;28;20502;-44
2022/05/13 05:27:46;;;;;;;6.00;5.40;;;17.60;99.90;;;;;;5092982;28;20486;-44
2022/05/13 05:30:14;;;;;;;6.90;6.20;;;17.60;99.90;;;;;;5092612;28;20475;-43
2022/05/13 05:32:43;;;;;;;6.40;5.90;;;17.60;99.90;;;;;;5093189;28;20471;-43
2022/05/13 05:35:14;;;;;;;6.70;6.10;;;17.40;99.90;;;;;;5092898;28;20520;-45
2022/05/13 05:37:41;;;;;;;6.47;5.87;;;17.20;99.90;;;;;;5092846;28;20538;-45
2022/05/13 05:40:10;;;;;;;7.47;6.77;;;17.00;99.90;;;;;;5092263;28;20526;-46
2022/05/13 05:42:37;;;;;;;6.33;5.73;;;17.10;99.90;;;;;;5092818;28;20444;-43
2022/05/13 05:45:05;;;;;;;7.50;6.80;;;17.20;99.90;;;;;;5092504;28;20501;-44
2022/05/13 05:47:33;;;;;;;6.67;6.00;;;17.40;99.90;;;;;;5092719;28;20531;-46
2022/05/13 05:50:02;;;;;;;5.60;4.97;;;17.50;99.90;;;;;;5091965;28;20476;-44
2022/05/13 05:52:30;;;;;;;5.97;5.47;;;17.50;99.90;;;;;;5092611;28;20501;-46
2022/05/13 05:57:42;;;;;;;6.93;6.17;;;17.70;99.90;;;;;;5092173;28;20798;-45
2022/05/13 06:00:10;;;;;;;6.80;6.20;;;17.60;99.90;;;;;;5092219;28;20467;-45
2022/05/13 06:02:37;;;;;;;7.43;5.83;;;17.70;99.90;;;;;;5092286;28;20501;-43
2022/05/13 06:05:04;;;;;;;6.87;5.87;;;17.60;99.90;;;;;;5092250;28;20509;-43
2022/05/13 06:07:33;;;;;;;7.03;6.23;;;17.60;99.90;;;;;;5092029;28;20519;-43
2022/05/13 06:09:59;;;;;;;6.30;5.70;;;17.60;99.90;;;;;;5092032;28;20895;-43
2022/05/13 06:12:26;;;;;;;6.07;5.57;;;17.60;99.90;;;;;;5092271;28;20489;-43
2022/05/13 06:14:53;;;;;;;6.50;5.90;;;17.70;99.90;;;;;;5091831;28;20887;-43
2022/05/13 06:17:21;;;;;;;7.27;5.87;;;17.50;99.90;;;;;;5091950;28;20439;-46
2022/05/13 06:19:47;;;;;;;6.00;5.50;;;17.60;99.90;;;;;;5091594;28;20444;-43
2022/05/13 06:22:15;;;;;;;7.00;6.40;;;17.70;99.90;;;;;;5091924;28;20474;-43
2022/05/13 06:24:43;;;;;;;7.63;6.07;;;17.70;99.90;;;;;;5091982;28;20502;-44
2022/05/13 06:27:10;;;;;;;6.93;6.23;;;17.70;99.90;;;;;;5091894;28;20447;-44
2022/05/13 06:29:37;;;;;;;5.77;5.23;;;17.70;99.90;;;;;;5091752;28;20558;-45
2022/05/13 06:32:04;;;;;;;6.40;5.80;;;17.70;99.90;;;;;;5091961;28;20443;-43
2022/05/13 06:34:32;;;;;;;7.00;6.40;;;17.60;99.90;;;;;;5091517;28;20491;-45
2022/05/13 06:36:59;;;;;;;6.60;6.00;;;17.60;99.90;;;;;;5091935;28;20443;-44
2022/05/13 06:39:26;;;;;;;5.97;5.43;;;17.40;99.90;;;;;;5091557;28;20855;-44
2022/05/13 06:41:54;;;;;;;6.50;6.00;;;17.50;99.90;;;;;;5091670;28;20440;-43
2022/05/13 06:44:22;;;;;;;8.27;7.03;;;17.50;99.90;;;;;;5091895;28;20459;-44
2022/05/13 06:46:49;;;;;;;15.50;7.63;;;17.60;99.90;;;;;;5091724;28;20444;-44
2022/05/13 06:49:16;;;;;;;6.90;6.20;;;17.60;99.90;;;;;;5091374;28;20443;-45
2022/05/13 06:51:43;;;;;;;7.90;6.50;;;17.60;99.90;;;;;;5091307;28;21018;-44
2022/05/13 06:54:12;;;;;;;6.80;6.10;;;17.70;99.90;;;;;;5092540;28;20981;-44
2022/05/13 06:56:41;;;;;;;7.47;6.43;;;17.90;99.90;;;;;;5091489;28;20496;-44
2022/05/13 06:59:10;;;;;;;6.47;5.87;;;18.00;99.90;;;;;;5091309;28;20859;-43
2022/05/13 07:01:38;;;;;;;10.03;6.50;;;18.00;99.90;;;;;;5091503;28;20504;-43
2022/05/13 07:04:05;;;;;;;7.00;6.40;;;18.00;99.90;;;;;;5091573;28;20455;-43
2022/05/13 07:06:32;;;;;;;6.57;5.67;;;18.00;99.90;;;;;;5091363;28;20985;-44
2022/05/13 07:08:59;;;;;;;6.50;6.00;;;18.00;99.90;;;;;;5090934;28;20717;-43
2022/05/13 07:11:27;;;;;;;6.70;6.00;;;18.00;99.90;;;;;;5091156;28;20560;-43
2022/05/13 07:13:53;;;;;;;7.50;6.67;;;18.00;99.90;;;;;;5091570;28;20459;-43
2022/05/13 07:16:22;;;;;;;11.97;6.03;;;17.90;99.90;;;;;;5095583;28;20500;-44
2022/05/13 07:18:49;;;;;;;6.20;5.60;;;17.90;99.90;;;;;;5095434;28;20439;-45
2022/05/13 07:21:17;;;;;;;10.00;8.80;;;18.00;99.90;;;;;;5095146;28;20951;-44
2022/05/13 07:23:44;;;;;;;9.50;8.60;;;18.00;99.90;;;;;;5095310;28;20516;-43
2022/05/13 07:26:12;;;;;;;10.27;7.63;;;18.10;99.90;;;;;;5094794;28;20488;-44
2022/05/13 07:28:39;;;;;;;7.50;6.70;;;18.00;99.90;;;;;;5095235;28;20439;-44
2022/05/13 07:31:07;;;;;;;11.53;7.70;;;18.00;99.90;;;;;;5095003;28;20506;-44
2022/05/13 07:33:35;;;;;;;8.03;7.17;;;17.90;99.90;;;;;;5095116;28;20529;-44
2022/05/13 07:36:03;;;;;;;7.80;7.00;;;18.10;99.90;;;;;;5094790;28;20443;-44
2022/05/13 07:38:31;;;;;;;11.17;7.40;;;18.10;99.90;;;;;;5094730;28;20859;-43
2022/05/13 07:43:43;;;;;;;8.03;6.47;;;18.20;99.90;;;;;;5094914;28;20414;-43
2022/05/13 07:46:10;;;;;;;7.50;6.90;;;18.20;99.90;;;;;;5095045;28;20474;-43
2022/05/13 07:48:40;;;;;;;8.00;7.30;;;18.30;99.90;;;;;;5094441;28;20486;-43
2022/05/13 07:51:08;;;;;;;7.27;6.67;;;18.20;99.90;;;;;;5095043;28;20475;-43
2022/05/13 07:53:36;;;;;;;8.33;7.10;;;18.20;99.90;;;;;;5094832;28;20431;-44
2022/05/13 07:56:03;;;;;;;7.03;6.37;;;18.30;99.90;;;;;;5094496;28;20505;-44
2022/05/13 07:58:31;;;;;;;11.77;7.90;;;18.40;99.90;;;;;;5094292;28;20502;-45
2022/05/13 08:01:00;;;;;;;7.13;6.53;;;18.40;99.90;;;;;;5094537;28;20465;-43
2022/05/13 08:03:30;;;;;;;6.27;5.77;;;18.30;99.90;;;;;;5094317;28;20447;-44
2022/05/13 08:06:03;;;;;;;7.97;7.17;;;18.30;99.90;;;;;;5094851;28;20512;-44
2022/05/13 08:08:32;;;;;;;7.80;7.10;;;18.20;99.90;;;;;;5094374;28;20447;-44
2022/05/13 08:11:00;;;;;;;11.53;8.30;;;18.10;99.90;;;;;;5094691;28;20486;-43
2022/05/13 08:13:30;;;;;;;8.67;7.73;;;18.10;99.90;;;;;;5094540;28;20461;-45
2022/05/13 08:15:58;;;;;;;8.33;7.43;;;18.00;99.90;;;;;;5094169;28;20467;-45
2022/05/13 08:18:25;;;;;;;8.00;7.20;;;18.00;99.90;;;;;;5094129;28;20458;-43
2022/05/13 08:20:53;;;;;;;9.97;8.23;;;18.00;99.90;;;;;;5093868;28;20823;-45
2022/05/13 08:23:22;;;;;;;7.80;7.10;;;18.10;99.90;;;;;;5093777;28;20482;-46
2022/05/13 08:25:49;;;;;;;10.73;7.50;;;18.10;99.90;;;;;;5091643;28;20521;-44
2022/05/13 08:28:17;;;;;;;10.13;8.20;;;18.10;99.90;;;;;;5091849;28;20470;-44
2022/05/13 08:30:44;;;;;;;8.30;7.50;;;18.10;99.90;;;;;;5093908;28;20932;-43
2022/05/13 08:33:12;;;;;;;9.30;8.03;;;18.10;99.90;;;;;;5093385;28;20440;-44
2022/05/13 08:35:41;;;;;;;9.73;8.80;;;18.20;99.90;;;;;;5093202;28;20459;-44
2022/05/13 08:38:10;;;;;;;9.07;8.27;;;18.20;99.90;;;;;;5093453;28;20475;-43
2022/05/13 08:40:53;;;;;;;9.43;8.63;;;18.20;99.90;;;;;;5092700;28;20667;-45
2022/05/13 08:43:23;;;;;;;12.97;8.70;;;18.20;99.90;;;;;;5092385;28;20450;-45
2022/05/13 08:45:54;;;;;;;9.80;8.87;;;18.10;99.90;;;;;;5092774;28;20502;-44
2022/05/13 08:48:30;;;;;;;11.30;9.20;;;18.20;99.90;;;;;;5091802;28;20934;-46
2022/05/13 08:51:03;;;;;;;9.90;8.90;;;18.30;99.90;;;;;;5092037;28;20561;-44
2022/05/13 08:53:32;;;;;;;11.53;10.33;;;18.40;99.90;;;;;;5092580;28;20498;-44
2022/05/13 08:56:04;;;;;;;10.70;9.67;;;18.50;99.90;;;;;;5092299;28;20501;-44
2022/05/13 08:58:37;;;;;;;10.97;9.90;;;18.50;99.90;;;;;;5092160;28;20454;-44
2022/05/13 09:01:11;;;;;;;10.50;9.20;;;18.50;99.90;;;;;;5092388;28;20995;-44
2022/05/13 09:03:41;;;;;;;9.90;8.90;;;18.60;99.90;;;;;;5093405;28;20450;-44
2022/05/13 09:06:14;;;;;;;17.10;9.77;;;18.80;99.90;;;;;;5093263;28;20665;-44
2022/05/13 09:08:41;;;;;;;9.90;9.00;;;18.90;99.90;;;;;;5093132;28;20488;-44
2022/05/13 09:11:16;;;;;;;10.20;9.30;;;19.00;99.90;;;;;;5093061;28;20552;-44
2022/05/13 09:13:53;;;;;;;11.30;10.07;;;19.20;99.90;;;;;;5091989;28;20496;-46
2022/05/13 09:16:33;;;;;;;11.03;10.03;;;19.20;99.90;;;;;;5092636;28;20474;-44
2022/05/13 09:19:04;;;;;;;10.90;9.73;;;19.30;99.90;;;;;;5092269;28;20444;-44
2022/05/13 09:21:33;;;;;;;12.00;9.27;;;19.40;99.90;;;;;;5092751;28;20438;-44
2022/05/13 09:24:00;;;;;;;8.47;7.70;;;19.50;99.90;;;;;;5092332;28;20467;-45
2022/05/13 09:26:28;;;;;;;11.00;7.67;;;19.50;99.90;;;;;;5092845;28;20444;-44
2022/05/13 09:29:08;;;;;;;9.40;8.50;;;19.50;99.90;;;;;;5092358;28;20929;-44
2022/05/13 09:31:39;;;;;;;8.53;7.83;;;19.60;99.90;;;;;;5092990;28;20479;-43
2022/05/13 09:34:16;;;;;;;9.00;8.20;;;19.60;99.90;;;;;;5092594;28;20737;-45
2022/05/13 09:36:43;;;;;;;8.53;7.77;;;19.60;99.90;;;;;;5092373;28;20443;-44
2022/05/13 09:39:22;;;;;;;9.90;8.50;;;19.60;99.90;;;;;;5092449;28;20440;-44
2022/05/13 09:41:52;;;;;;;14.30;8.43;;;19.70;99.90;;;;;;5092650;28;20443;-43
2022/05/13 09:44:22;;;;;;;8.70;7.90;;;19.90;99.90;;;;;;5092560;28;20462;-44
2022/05/13 09:46:51;;;;;;;9.43;7.17;;;20.00;99.90;;;;;;5092682;28;20483;-44
2022/05/13 09:49:29;;;;;;;11.73;8.47;;;20.00;99.90;;;;;;5092221;28;20530;-44
2022/05/13 09:51:58;;;;;;;9.87;6.90;;;20.00;99.90;;;;;;5092391;28;21057;-44
2022/05/13 09:54:31;;;;;;;8.60;7.77;;;20.00;99.90;;;;;;5092032;28;20502;-43
2022/05/13 09:57:08;;;;;;;8.63;7.83;;;19.90;99.90;;;;;;5092198;28;20451;-43
2022/05/13 09:59:38;;;;;;;8.20;7.50;;;20.00;99.90;;;;;;5092106;28;20444;-43
2022/05/13 10:02:20;;;;;;;7.27;6.67;;;20.10;99.90;;;;;;5092524;28;20469;-44
2022/05/13 10:04:52;;;;;;;7.20;6.50;;;20.10;99.90;;;;;;5091592;28;20491;-43
2022/05/13 10:07:20;;;;;;;7.40;6.70;;;20.10;99.90;;;;;;5091899;28;20446;-44
2022/05/13 10:15:27;;;;;;;9.07;8.27;;;20.30;99.90;;;;;;5091797;28;20592;-43
2022/05/13 10:18:01;;;;;;;9.63;8.73;;;20.30;99.90;;;;;;5091835;28;20463;-45
2022/05/13 10:20:31;;;;;;;11.87;8.50;;;20.30;99.90;;;;;;5091587;28;20446;-44
2022/05/13 10:23:05;;;;;;;11.07;9.93;;;20.30;99.90;;;;;;5092235;28;20522;-44
2022/05/13 10:25:36;;;;;;;10.93;9.93;;;20.30;99.90;;;;;;5091862;28;20451;-44
2022/05/13 10:28:09;;;;;;;10.70;9.70;;;20.20;99.90;;;;;;5091525;28;20439;-44
2022/05/13 10:30:43;;;;;;;10.20;9.33;;;20.20;99.90;;;;;;5091538;28;20522;-44
2022/05/13 10:33:17;;;;;;;10.30;9.10;;;20.20;99.90;;;;;;5091866;28;20472;-44
2022/05/13 10:35:53;;;;;;;10.80;9.70;;;20.20;99.90;;;;;;5090989;28;20459;-44
2022/05/13 10:38:28;;;;;;;10.63;9.57;;;20.20;99.90;;;;;;5089957;28;20511;-44
2022/05/13 10:40:58;;;;;;;8.87;8.07;;;20.20;99.90;;;;;;5090911;28;20881;-44
2022/05/13 10:43:33;;;;;;;9.03;8.23;;;20.20;99.90;;;;;;5090703;28;20988;-45
2022/05/13 10:46:11;;;;;;;8.93;8.13;;;20.30;99.90;;;;;;5091670;28;20930;-43
2022/05/13 10:48:38;;;;;;;8.50;7.80;;;20.20;99.90;;;;;;5090208;28;20519;-44
2022/05/13 10:51:12;;;;;;;10.77;8.00;;;20.30;99.90;;;;;;5091607;28;20475;-47
2022/05/13 10:54:05;;;;;;;7.83;7.03;;;20.20;99.90;;;;;;5091542;28;20882;-45
2022/05/13 10:56:40;;;;;;;8.30;7.50;;;20.10;99.90;;;;;;5091534;28;20492;-44
2022/05/13 10:59:20;;;;;;;7.60;7.00;;;20.10;99.90;;;;;;5090735;28;20434;-44
2022/05/13 11:01:56;;;;;;;6.73;6.00;;;20.10;99.90;;;;;;5090059;28;20518;-45
2022/05/13 11:04:30;;;;;;;6.77;6.27;;;20.10;99.90;;;;;;5090748;28;20455;-44
2022/05/13 11:07:10;;;;;;;7.60;6.70;;;20.20;99.90;;;;;;5090938;28;20787;-44
2022/05/13 11:09:47;;;;;;;7.97;7.20;;;20.20;99.90;;;;;;5090753;28;20817;-43
2022/05/13 11:12:26;;;;;;;6.40;5.90;;;20.20;99.90;;;;;;5091269;28;20502;-43
2022/05/13 11:15:15;;;;;;;8.53;6.80;;;20.10;99.90;;;;;;5091111;28;20467;-44
2022/05/13 11:17:48;;;;;;;7.33;6.73;;;20.20;99.90;;;;;;5091059;28;20479;-43
2022/05/13 11:20:24;;;;;;;7.80;6.57;;;20.20;99.90;;;;;;5090943;28;20444;-45
2022/05/13 11:23:04;;;;;;;7.20;6.57;;;20.10;99.90;;;;;;5091540;28;20528;-45
2022/05/13 11:25:56;;;;;;;7.27;6.70;;;20.20;99.90;;;;;;5091048;28;20498;-44
2022/05/13 11:28:34;;;;;;;7.80;7.10;;;20.20;99.90;;;;;;5090783;28;20431;-46
2022/05/13 11:31:17;;;;;;;7.40;6.70;;;20.30;99.90;;;;;;5091325;28;21041;-44
2022/05/13 11:33:51;;;;;;;7.10;6.50;;;20.30;99.90;;;;;;5090495;28;20447;-44
2022/05/13 11:36:29;;;;;;;6.40;5.80;;;20.40;99.90;;;;;;5090926;28;20497;-45
2022/05/13 11:39:33;;;;;;;8.03;7.23;;;20.40;99.90;;;;;;5089831;28;20911;-47
2022/05/13 11:42:10;;;;;;;8.60;7.37;;;20.30;99.90;;;;;;5059194;28;20941;-49
2022/05/13 11:44:49;;;;;;;7.30;6.60;;;20.30;99.90;;;;;;5090139;28;20490;-44
2022/05/13 11:47:24;;;;;;;11.57;7.80;;;20.30;99.90;;;;;;5089859;28;20492;-44
2022/05/13 11:49:53;;;;;;;7.50;6.40;;;20.40;99.90;;;;;;5089571;28;20439;-44
2022/05/13 11:52:44;;;;;;;7.50;6.90;;;20.50;99.90;;;;;;5090225;28;20499;-44
2022/05/13 11:55:15;;;;;;;8.23;7.43;;;20.60;99.90;;;;;;5090432;28;20503;-45
2022/05/13 11:57:43;;;;;;;7.77;7.00;;;20.70;99.90;;;;;;5090609;28;20532;-44
2022/05/13 12:00:37;;;;;;;7.20;6.43;;;20.70;99.90;;;;;;5091302;28;20478;-45
2022/05/13 12:03:16;;;;;;;7.87;7.07;;;20.80;99.90;;;;;;5094573;28;20471;-44
2022/05/13 12:06:02;;;;;;;8.50;6.77;;;20.60;99.90;;;;;;5094733;28;20463;-47
2022/05/13 12:08:33;;;;;;;7.43;6.70;;;20.50;99.90;;;;;;5093630;28;20442;-44
2022/05/13 12:11:17;;;;;;;9.03;8.23;;;20.60;99.90;;;;;;5093143;28;20475;-44
2022/05/13 12:13:54;;;;;;;9.90;7.80;;;20.70;99.90;;;;;;5092977;28;20469;-45
2022/05/13 12:16:33;;;;;;;8.03;7.23;;;20.70;99.90;;;;;;5093894;28;20472;-44
2022/05/13 12:19:17;;;;;;;8.00;7.33;;;20.70;99.90;;;;;;5093774;28;20439;-43
2022/05/13 12:21:49;;;;;;;8.43;7.63;;;20.70;99.90;;;;;;5093988;28;20949;-46
2022/05/13 12:24:21;;;;;;;10.20;7.07;;;20.80;99.90;;;;;;5093943;28;20969;-44
2022/05/13 12:27:13;;;;;;;7.80;7.10;;;20.80;99.90;;;;;;5094432;28;20467;-43
2022/05/13 12:29:44;;;;;;;7.70;7.00;;;20.90;99.90;;;;;;5093960;28;20444;-44
2022/05/13 12:32:20;;;;;;;8.60;7.70;;;20.80;99.90;;;;;;5093910;28;20865;-44
2022/05/13 12:38:03;;;;;;;7.27;6.67;;;20.80;99.90;;;;;;5094342;28;21032;-44
2022/05/13 12:40:35;;;;;;;11.40;10.30;;;20.70;99.90;;;;;;5094205;28;20443;-46
2022/05/13 12:43:13;;;;;;;10.20;9.30;;;20.70;99.90;;;;;;5093800;28;20439;-45
2022/05/13 12:45:45;;;;;;;12.47;9.13;;;20.70;99.90;;;;;;5093786;28;20832;-43
2022/05/13 12:48:16;;;;;;;10.13;9.23;;;20.70;99.90;;;;;;5093100;28;20532;-47
2022/05/13 12:50:47;;;;;;;8.80;7.90;;;20.80;99.90;;;;;;5093730;28;20439;-44
2022/05/13 12:53:44;;;;;;;9.03;7.03;;;20.80;99.90;;;;;;5093679;28;20562;-44
2022/05/13 12:56:18;;;;;;;8.37;7.37;;;20.90;99.90;;;;;;5095032;28;20467;-45
2022/05/13 12:58:48;;;;;;;8.67;7.43;;;20.90;99.90;;;;;;5093465;28;20479;-44
2022/05/13 13:01:17;;;;;;;7.67;6.40;;;21.00;99.90;;;;;;5093593;28;20481;-44
2022/05/13 13:03:47;;;;;;;6.57;6.07;;;21.00;99.90;;;;;;5093116;28;20441;-44
2022/05/13 13:06:20;;;;;;;7.53;6.83;;;21.10;99.90;;;;;;5093650;28;20471;-43
2022/05/13 13:08:50;;;;;;;8.40;6.10;;;21.00;99.90;;;;;;5093304;28;20451;-43
2022/05/13 13:11:23;;;;;;;17.87;7.23;;;21.10;99.90;;;;;;5092984;28;20475;-44
2022/05/13 13:13:56;;;;;;;6.53;5.93;;;21.10;99.90;;;;;;5092956;28;20452;-44
2022/05/13 13:16:31;;;;;;;7.07;5.90;;;21.20;99.90;;;;;;5093236;28;20482;-44
2022/05/13 13:19:11;;;;;;;7.10;6.50;;;21.20;99.90;;;;;;5092904;28;20443;-44
2022/05/13 13:21:41;;;;;;;7.37;6.70;;;21.30;99.90;;;;;;5092975;28;20470;-44
2022/05/13 13:24:19;;;;;;;8.73;7.83;;;21.40;99.90;;;;;;5092862;28;20456;-45
2022/05/13 13:26:49;;;;;;;7.67;6.97;;;21.50;99.90;;;;;;5092738;28;20467;-47